KJZP

Pickens County Airport

Jasper, Georgia, USA
METAR KJZP 240155Z AUTO 00000KT 10SM CLR 21/20 A3013 RMK AO2 T02100195 PNO
Observed Flight Rules
May-24 @ 01:55 UTC (19 minutes ago) Visual Flight Rules
Visibility Clouds
10 miles
  • Clear skies
Temperatures Readings
Current 21°C / 70°F
Dewpoint 20°C / 68°F
Humidity 94%
Altimeter 30.13" Hg
Pressure 1020 hPa
Elevation 468
METAR KJZP 240155Z AUTO 00000KT 10SM CLR 21/20 A3013 RMK AO2 T02100195 PNO
Observed Flight Rules
May-24 @ 01:55 UTC
(19 minutes ago)
VFR
Clouds
  • Clear skies
Temperature Dewpoint
21°C / 70°F 20°C / 68°F
Humidity Altimeter Pressure
94% 30.13" Hg 1020 hPa